Panda — PBCS — position and weather

sailwx.info

Track history (hours):
 
Tides and Currents Weather Stations Pressure Air Temp Water Temp Dewpoint Dewpoint Depression Visibility Wind Speed Wind Dir Waves Ship Positions

Panda

Last reported at 2015-Jul-03 19:34 UTC. Time now 2015-Jul-03 20:15 UTC.
Position N 53°43' E 005°47'.

Length 89 m; draft 4.4 m.

Type: Cargo ship. MMSI: 245014000.

Date/timePositionNaut miles runAvg speedWind from/ knotsBaromVisibWave heightAir tempDewpointWater temp
2015-Jul-03 19:34N 53°43' E 005°47'10 9.2
2015-Jul-03 18:30N 53°46' E 006°02'6611.0
2015-Jul-03 12:30N 54°02' E 007°51'9 9.6
2015-Jul-03 11:33N 54°01' E 008°06'10 9.3
2015-Jul-03 10:28N 53°60' E 008°23'7 7.5
2015-Jul-03 09:33N 53°58' E 008°34'9 8.6
2015-Jul-03 08:33N 53°52' E 008°44'1212.1
2015-Jul-03 07:33N 53°53' E 009°05'3 3.3
2015-Jul-03 06:33N 53°54' E 009°10'8 8.1
2015-Jul-03 05:33N 54°01' E 009°18'17 7.6
2015-Jul-03 03:21N 54°14' E 009°36'6 7.2
2015-Jul-03 02:34N 54°18' E 009°42'7 7.2
2015-Jul-03 01:34N 54°21' E 009°54'5 5.2
2015-Jul-03 00:33N 54°22' E 010°02'4 3.6
2015-Jul-02 23:34N 54°22' E 010°09'3 2.8
2015-Jul-02 22:34N 54°24' E 010°12'12 9.8
2015-Jul-02 21:21N 54°32' E 010°27'810.2
2015-Jul-02 20:32N 54°35' E 010°40'1210.9
2015-Jul-02 19:27N 54°36' E 011°00'1111.7
2015-Jul-02 18:33N 54°34' E 011°18'1111.6
2015-Jul-02 17:33N 54°30' E 011°37'1111.1
2015-Jul-02 16:34N 54°27' E 011°55'10 9.7
2015-Jul-02 15:33N 54°30' E 012°11'10 9.7
2015-Jul-02 14:29N 54°33' E 012°28'1010.6
2015-Jul-02 13:33N 54°35' E 012°45'1111.0
2015-Jul-02 12:33N 54°40' E 013°02'1111.1
2015-Jul-02 11:33N 54°43' E 013°20'1010.6
2015-Jul-02 10:33N 54°43' E 013°39'10 9.9
2015-Jul-02 09:33N 54°41' E 013°56'1010.2
2015-Jul-02 08:33N 54°39' E 014°13'1010.3
2015-Jul-02 07:33N 54°38' E 014°31'1410.6
2015-Jul-02 06:15N 54°40' E 014°54'910.2
2015-Jul-02 05:25N 54°42' E 015°09'910.2
2015-Jul-02 04:33N 54°43' E 015°24'1010.2
2015-Jul-02 03:33N 54°45' E 015°41'1010.2
2015-Jul-02 02:34N 54°46' E 015°59'2110.2
2015-Jul-02 00:28N 54°49' E 016°35'910.1
2015-Jul-01 23:34N 54°51' E 016°51'1010.2
2015-Jul-01 22:33N 54°54' E 017°08'1010.2
2015-Jul-01 21:34N 54°55' E 017°25'1010.2
2015-Jul-01 20:34N 54°56' E 017°43'1010.3
2015-Jul-01 19:34N 54°56' E 018°01'1010.3
2015-Jul-01 18:34N 54°57' E 018°19'1010.1
2015-Jul-01 17:34N 54°57' E 018°37'1010.0
2015-Jul-01 16:33N 54°55' E 018°54'10 9.9
2015-Jul-01 15:33N 54°51' E 019°10'1110.1
2015-Jul-01 14:29N 54°48' E 019°27'1010.3
2015-Jul-01 13:33N 54°43' E 019°42'13 0.5
2015-Jun-30 14:32N 54°39' E 020°02'8 8.2
2015-Jun-30 13:33N 54°40' E 019°48'2 2.4
2015-Jun-30 12:33N 54°40' E 019°44'5 4.9
2015-Jun-30 11:33N 54°44' E 019°38'7 6.9
2015-Jun-30 10:33N 54°47' E 019°28'7 6.9
2015-Jun-30 09:32N 54°50' E 019°17'7 6.7
2015-Jun-30 08:33N 54°53' E 019°06'7 6.8
2015-Jun-30 07:33N 54°55' E 018°55'8 7.6
2015-Jun-30 06:33N 54°58' E 018°43'10 9.5
2015-Jun-30 05:33N 55°02' E 018°28'10 9.3
2015-Jun-30 04:31N 55°06' E 018°13'20 9.1
2015-Jun-30 02:21N 55°14' E 017°41'9 8.9
2015-Jun-30 01:18N 55°17' E 017°26'96 3.2
2015-Jun-28 19:28N 55°27' E 014°37'10210.3
2015-Jun-28 09:31N 54°27' E 012°13'1010.1
2015-Jun-28 08:33N 54°25' E 011°56'1010.1
2015-Jun-28 07:33N 54°27' E 011°39'1010.4
2015-Jun-28 06:33N 54°31' E 011°23'22 9.9
2015-Jun-28 04:20N 54°34' E 010°45'910.3
2015-Jun-28 03:25N 54°32' E 010°30'910.4
2015-Jun-28 02:33N 54°27' E 010°16'7 7.0
2015-Jun-28 01:33N 54°22' E 010°09'3 3.3
2015-Jun-28 00:33N 54°22' E 010°03'8 7.6
2015-Jun-27 23:33N 54°22' E 009°50'4 4.3
2015-Jun-27 22:33N 54°20' E 009°43'21 6.2
2015-Jun-27 19:13N 54°05' E 009°19'6 8.6
2015-Jun-27 18:33N 53°59' E 009°17'7 7.4
2015-Jun-27 17:33N 53°54' E 009°09'7 7.1
2015-Jun-27 16:33N 53°51' E 008°58'9 8.9
2015-Jun-27 15:33N 53°52' E 008°43'99 9.8
2015-Jun-27 05:29N 53°39' E 005°57'1011.2
2015-Jun-27 04:33N 53°36' E 005°41'1211.3
2015-Jun-27 03:32N 53°32' E 005°22'1111.5
2015-Jun-27 02:33N 53°29' E 005°04'1212.0
2015-Jun-27 01:32N 53°24' E 004°46'2912.1
2015-Jun-26 23:07N 52°59' E 004°21'712.0
2015-Jun-26 22:33N 52°53' E 004°15'1211.8
2015-Jun-26 21:33N 52°42' E 004°06'1211.7
2015-Jun-26 20:33N 52°32' E 003°56'1111.0
2015-Jun-26 19:32N 52°21' E 003°52'1110.4
2015-Jun-26 18:28N 52°10' E 003°54'1010.6
2015-Jun-26 17:33N 52°01' E 004°01'1211.8
2015-Jun-26 16:33N 51°54' E 004°16'5 5.0
2015-Jun-26 15:31N 51°53' E 004°25'0 0.0
2015-Jun-26 14:31N 51°53' E 004°25'0 0.0
2015-Jun-26 13:31N 51°53' E 004°25'0 0.0
2015-Jun-26 12:31N 51°53' E 004°25'0 0.0
2015-Jun-26 11:31N 51°53' E 004°25'0 0.0
2015-Jun-26 10:31N 51°53' E 004°25'0 0.0
2015-Jun-26 09:31N 51°53' E 004°25'0 0.0
2015-Jun-26 08:28N 51°53' E 004°25'0 0.0
2015-Jun-26 07:28N 51°53' E 004°25'0 0.0
2015-Jun-26 06:31N 51°53' E 004°25'0 0.0
2015-Jun-26 05:31N 51°53' E 004°25'0 0.0
2015-Jun-26 04:28N 51°53' E 004°25'0 0.0
2015-Jun-26 03:33N 51°53' E 004°25'6 5.6
2015-Jun-26 02:32N 51°54' E 004°34'28 5.6
2015-Jun-25 21:33N 51°49' E 005°18'17 8.2
2015-Jun-25 19:32N 51°53' E 005°44'20 8.6
2015-Jun-25 17:14N 51°49' E 006°16'22 8.0
2015-Jun-25 14:29N 51°34' E 006°41'  
Track history (hours):
 
Tides and Currents Weather Stations Pressure Air Temp Water Temp Dewpoint Dewpoint Depression Visibility Wind Speed Wind Dir Waves Ship Positions

Panda

Last reported at 2015-Jul-03 19:34 UTC. Time now 2015-Jul-03 20:15 UTC.
Position N 53°43' E 005°47'.

Length 89 m; draft 4.4 m.

Type: Cargo ship. MMSI: 245014000.

Date/timePositionNaut miles runAvg speedWind from/ knotsBaromVisibWave heightAir tempDewpointWater temp
2015-Jul-03 19:34N 53°43' E 005°47'10 9.2
2015-Jul-03 18:30N 53°46' E 006°02'6611.0
2015-Jul-03 12:30N 54°02' E 007°51'9 9.6
2015-Jul-03 11:33N 54°01' E 008°06'10 9.3
2015-Jul-03 10:28N 53°60' E 008°23'7 7.5
2015-Jul-03 09:33N 53°58' E 008°34'9 8.6
2015-Jul-03 08:33N 53°52' E 008°44'1212.1
2015-Jul-03 07:33N 53°53' E 009°05'3 3.3
2015-Jul-03 06:33N 53°54' E 009°10'8 8.1
2015-Jul-03 05:33N 54°01' E 009°18'17 7.6
2015-Jul-03 03:21N 54°14' E 009°36'6 7.2
2015-Jul-03 02:34N 54°18' E 009°42'7 7.2
2015-Jul-03 01:34N 54°21' E 009°54'5 5.2
2015-Jul-03 00:33N 54°22' E 010°02'4 3.6
2015-Jul-02 23:34N 54°22' E 010°09'3 2.8
2015-Jul-02 22:34N 54°24' E 010°12'12 9.8
2015-Jul-02 21:21N 54°32' E 010°27'810.2
2015-Jul-02 20:32N 54°35' E 010°40'1210.9
2015-Jul-02 19:27N 54°36' E 011°00'1111.7
2015-Jul-02 18:33N 54°34' E 011°18'1111.6
2015-Jul-02 17:33N 54°30' E 011°37'1111.1
2015-Jul-02 16:34N 54°27' E 011°55'10 9.7
2015-Jul-02 15:33N 54°30' E 012°11'10 9.7
2015-Jul-02 14:29N 54°33' E 012°28'1010.6
2015-Jul-02 13:33N 54°35' E 012°45'1111.0
2015-Jul-02 12:33N 54°40' E 013°02'1111.1
2015-Jul-02 11:33N 54°43' E 013°20'1010.6
2015-Jul-02 10:33N 54°43' E 013°39'10 9.9
2015-Jul-02 09:33N 54°41' E 013°56'1010.2
2015-Jul-02 08:33N 54°39' E 014°13'1010.3
2015-Jul-02 07:33N 54°38' E 014°31'1410.6
2015-Jul-02 06:15N 54°40' E 014°54'910.2
2015-Jul-02 05:25N 54°42' E 015°09'910.2
2015-Jul-02 04:33N 54°43' E 015°24'1010.2
2015-Jul-02 03:33N 54°45' E 015°41'1010.2
2015-Jul-02 02:34N 54°46' E 015°59'2110.2
2015-Jul-02 00:28N 54°49' E 016°35'910.1
2015-Jul-01 23:34N 54°51' E 016°51'1010.2
2015-Jul-01 22:33N 54°54' E 017°08'1010.2
2015-Jul-01 21:34N 54°55' E 017°25'1010.2
2015-Jul-01 20:34N 54°56' E 017°43'1010.3
2015-Jul-01 19:34N 54°56' E 018°01'1010.3
2015-Jul-01 18:34N 54°57' E 018°19'1010.1
2015-Jul-01 17:34N 54°57' E 018°37'1010.0
2015-Jul-01 16:33N 54°55' E 018°54'10 9.9
2015-Jul-01 15:33N 54°51' E 019°10'1110.1
2015-Jul-01 14:29N 54°48' E 019°27'1010.3
2015-Jul-01 13:33N 54°43' E 019°42'13 0.5
2015-Jun-30 14:32N 54°39' E 020°02'8 8.2
2015-Jun-30 13:33N 54°40' E 019°48'2 2.4
2015-Jun-30 12:33N 54°40' E 019°44'5 4.9
2015-Jun-30 11:33N 54°44' E 019°38'7 6.9
2015-Jun-30 10:33N 54°47' E 019°28'7 6.9
2015-Jun-30 09:32N 54°50' E 019°17'7 6.7
2015-Jun-30 08:33N 54°53' E 019°06'7 6.8
2015-Jun-30 07:33N 54°55' E 018°55'8 7.6
2015-Jun-30 06:33N 54°58' E 018°43'10 9.5
2015-Jun-30 05:33N 55°02' E 018°28'10 9.3
2015-Jun-30 04:31N 55°06' E 018°13'20 9.1
2015-Jun-30 02:21N 55°14' E 017°41'9 8.9
2015-Jun-30 01:18N 55°17' E 017°26'96 3.2
2015-Jun-28 19:28N 55°27' E 014°37'10210.3
2015-Jun-28 09:31N 54°27' E 012°13'1010.1
2015-Jun-28 08:33N 54°25' E 011°56'1010.1
2015-Jun-28 07:33N 54°27' E 011°39'1010.4
2015-Jun-28 06:33N 54°31' E 011°23'22 9.9
2015-Jun-28 04:20N 54°34' E 010°45'910.3
2015-Jun-28 03:25N 54°32' E 010°30'910.4
2015-Jun-28 02:33N 54°27' E 010°16'7 7.0
2015-Jun-28 01:33N 54°22' E 010°09'3 3.3
2015-Jun-28 00:33N 54°22' E 010°03'8 7.6
2015-Jun-27 23:33N 54°22' E 009°50'4 4.3
2015-Jun-27 22:33N 54°20' E 009°43'21 6.2
2015-Jun-27 19:13N 54°05' E 009°19'6 8.6
2015-Jun-27 18:33N 53°59' E 009°17'7 7.4
2015-Jun-27 17:33N 53°54' E 009°09'7 7.1
2015-Jun-27 16:33N 53°51' E 008°58'9 8.9
2015-Jun-27 15:33N 53°52' E 008°43'99 9.8
2015-Jun-27 05:29N 53°39' E 005°57'1011.2
2015-Jun-27 04:33N 53°36' E 005°41'1211.3
2015-Jun-27 03:32N 53°32' E 005°22'1111.5
2015-Jun-27 02:33N 53°29' E 005°04'1212.0
2015-Jun-27 01:32N 53°24' E 004°46'2912.1
2015-Jun-26 23:07N 52°59' E 004°21'712.0
2015-Jun-26 22:33N 52°53' E 004°15'1211.8
2015-Jun-26 21:33N 52°42' E 004°06'1211.7
2015-Jun-26 20:33N 52°32' E 003°56'1111.0
2015-Jun-26 19:32N 52°21' E 003°52'1110.4
2015-Jun-26 18:28N 52°10' E 003°54'1010.6
2015-Jun-26 17:33N 52°01' E 004°01'1211.8
2015-Jun-26 16:33N 51°54' E 004°16'5 5.0
2015-Jun-26 15:31N 51°53' E 004°25'0 0.0
2015-Jun-26 14:31N 51°53' E 004°25'0 0.0
2015-Jun-26 13:31N 51°53' E 004°25'0 0.0
2015-Jun-26 12:31N 51°53' E 004°25'0 0.0
2015-Jun-26 11:31N 51°53' E 004°25'0 0.0
2015-Jun-26 10:31N 51°53' E 004°25'0 0.0
2015-Jun-26 09:31N 51°53' E 004°25'0 0.0
2015-Jun-26 08:28N 51°53' E 004°25'0 0.0
2015-Jun-26 07:28N 51°53' E 004°25'0 0.0
2015-Jun-26 06:31N 51°53' E 004°25'0 0.0
2015-Jun-26 05:31N 51°53' E 004°25'0 0.0
2015-Jun-26 04:28N 51°53' E 004°25'0 0.0
2015-Jun-26 03:33N 51°53' E 004°25'6 5.6
2015-Jun-26 02:32N 51°54' E 004°34'28 5.6
2015-Jun-25 21:33N 51°49' E 005°18'17 8.2
2015-Jun-25 19:32N 51°53' E 005°44'20 8.6
2015-Jun-25 17:14N 51°49' E 006°16'22 8.0
2015-Jun-25 14:29N 51°34' E 006°41'  

Dump ship's entire track history